Time;durP1;ratioP1;P1;durP2;ratioP2;P2;SDS_P1;SDS_P2;PMS_P1;PMS_P2;Temp;Humidity;BMP_temperature;BMP_pressure;BME280_temperature;BME280_humidity;BME280_pressure;Samples;Min_cycle;Max_cycle;Signal;HPM_P1;HPM_P2
2022/01/17 00:00:36;;;;;;;10.13;1.95;;;5.50;99.90;;;;;;4974769;28;20671;-60
2022/01/17 00:03:01;;;;;;;5.82;1.60;;;5.50;99.90;;;;;;4974808;28;20183;-60
2022/01/17 00:05:28;;;;;;;11.95;2.15;;;5.50;99.90;;;;;;4974628;28;20197;-60
2022/01/17 00:07:53;;;;;;;13.60;1.95;;;5.50;99.90;;;;;;4974667;28;20526;-59
2022/01/17 00:10:19;;;;;;;4.05;1.75;;;5.50;99.90;;;;;;4975012;28;20207;-60
2022/01/17 00:12:46;;;;;;;11.55;2.03;;;5.50;99.90;;;;;;4974609;28;20618;-60
2022/01/17 00:15:21;;;;;;;8.30;1.63;;;5.60;99.90;;;;;;4974708;28;20171;-60
2022/01/17 00:17:52;;;;;;;13.73;1.55;;;5.60;99.90;;;;;;4974865;28;20242;-59
2022/01/17 00:20:25;;;;;;;12.93;2.17;;;5.60;99.90;;;;;;4974688;28;20167;-60
2022/01/17 00:22:52;;;;;;;9.60;2.10;;;5.60;99.90;;;;;;4975131;28;20255;-59
2022/01/17 00:25:17;;;;;;;6.57;1.17;;;5.60;99.90;;;;;;4974584;28;20172;-59
2022/01/17 00:27:43;;;;;;;13.07;1.55;;;5.60;99.90;;;;;;4974426;28;20176;-60
2022/01/17 00:30:09;;;;;;;6.18;1.48;;;5.60;99.90;;;;;;4974279;28;20667;-61
2022/01/17 00:32:35;;;;;;;8.95;1.40;;;5.60;99.90;;;;;;4974317;28;20167;-60
2022/01/17 00:35:01;;;;;;;7.30;1.75;;;5.70;99.90;;;;;;4974514;28;20168;-61
2022/01/17 00:37:27;;;;;;;6.13;1.50;;;5.70;99.90;;;;;;4974568;28;20182;-60
2022/01/17 00:39:52;;;;;;;8.80;1.90;;;5.70;99.90;;;;;;4974276;28;20159;-60
2022/01/17 00:42:18;;;;;;;11.80;1.90;;;5.70;99.90;;;;;;4974378;28;20258;-60
2022/01/17 00:44:44;;;;;;;6.55;1.80;;;5.70;99.90;;;;;;4974556;28;20176;-60
2022/01/17 00:47:09;;;;;;;9.20;1.58;;;5.70;99.90;;;;;;4974442;28;20172;-60
2022/01/17 00:49:35;;;;;;;7.03;1.30;;;5.70;99.90;;;;;;4974235;28;20163;-59
2022/01/17 00:52:00;;;;;;;15.40;2.25;;;5.70;99.90;;;;;;4974143;28;20207;-58
2022/01/17 00:54:26;;;;;;;10.63;2.03;;;5.70;99.90;;;;;;4974351;28;20460;-60
2022/01/17 00:56:51;;;;;;;6.90;1.77;;;5.70;99.90;;;;;;4975387;28;20677;-59
2022/01/17 00:59:17;;;;;;;10.85;1.90;;;5.70;99.90;;;;;;4977650;28;20611;-57
2022/01/17 01:01:42;;;;;;;6.15;1.30;;;5.70;99.90;;;;;;4977409;28;20202;-60
2022/01/17 01:04:08;;;;;;;10.82;1.23;;;5.80;99.90;;;;;;4977780;28;20187;-60
2022/01/17 01:06:36;;;;;;;7.97;2.08;;;5.80;99.90;;;;;;4977292;28;20623;-59
2022/01/17 01:09:02;;;;;;;7.53;2.08;;;5.90;99.90;;;;;;4977412;28;20685;-59
2022/01/17 01:11:28;;;;;;;8.07;1.50;;;5.90;99.90;;;;;;4977326;28;20250;-58
2022/01/17 01:13:53;;;;;;;7.18;1.92;;;5.90;99.90;;;;;;4977295;28;20195;-59
2022/01/17 01:29:33;;;;;;;15.80;1.98;;;5.90;99.90;;;;;;4977281;28;20703;-60
2022/01/17 01:32:03;;;;;;;13.23;1.83;;;5.90;99.90;;;;;;4976922;28;20203;-60
2022/01/17 01:34:42;;;;;;;8.20;1.70;;;5.90;99.90;;;;;;4977240;28;20163;-61
2022/01/17 01:37:08;;;;;;;9.90;1.73;;;5.90;99.90;;;;;;4976884;28;20143;-60
2022/01/17 01:39:34;;;;;;;8.63;1.50;;;5.90;99.90;;;;;;4976896;28;20630;-60
2022/01/17 01:42:03;;;;;;;7.40;1.75;;;5.90;99.90;;;;;;4977080;28;20219;-60
2022/01/17 01:44:30;;;;;;;8.80;1.85;;;6.00;99.90;;;;;;4976978;28;20214;-61
2022/01/17 01:46:58;;;;;;;10.48;2.35;;;6.00;99.90;;;;;;4976937;28;20599;-61
2022/01/17 01:49:25;;;;;;;12.18;2.03;;;6.00;99.90;;;;;;4976727;28;20608;-60
2022/01/17 01:51:51;;;;;;;11.50;2.28;;;6.10;99.90;;;;;;4976575;28;20191;-60
2022/01/17 01:54:18;;;;;;;8.98;1.90;;;6.10;99.90;;;;;;4976660;28;20170;-61
2022/01/17 01:56:46;;;;;;;8.00;1.80;;;6.10;99.90;;;;;;4976722;28;20178;-61
2022/01/17 01:59:12;;;;;;;9.20;2.00;;;6.10;99.90;;;;;;4976550;28;20175;-60
2022/01/17 02:01:38;;;;;;;9.60;2.22;;;6.10;99.90;;;;;;4976454;28;20690;-60
2022/01/17 02:04:04;;;;;;;6.65;2.40;;;6.20;99.90;;;;;;4976776;28;20258;-60
2022/01/17 02:06:32;;;;;;;13.25;1.98;;;6.20;99.90;;;;;;4976222;28;20199;-60
2022/01/17 02:08:58;;;;;;;10.68;2.00;;;6.20;99.90;;;;;;4975781;28;20180;-61
2022/01/17 02:11:24;;;;;;;10.63;1.90;;;6.20;99.90;;;;;;4975251;28;20222;-59
2022/01/17 02:13:50;;;;;;;9.13;2.05;;;6.20;99.90;;;;;;4975613;28;20191;-60
2022/01/17 02:16:16;;;;;;;7.40;1.80;;;6.20;99.90;;;;;;4976616;28;20246;-61
2022/01/17 02:18:44;;;;;;;8.63;2.20;;;6.20;99.90;;;;;;4976218;28;20191;-60
2022/01/17 02:21:19;;;;;;;11.90;1.90;;;6.30;99.90;;;;;;4976288;28;20253;-60
2022/01/17 02:23:51;;;;;;;10.95;1.90;;;6.20;99.90;;;;;;4976315;28;20205;-60
2022/01/17 02:26:18;;;;;;;11.63;2.45;;;6.30;99.90;;;;;;4976426;28;20222;-61
2022/01/17 02:28:49;;;;;;;14.65;1.83;;;6.30;99.90;;;;;;4975989;28;20176;-60
2022/01/17 02:31:15;;;;;;;9.32;1.90;;;6.30;99.90;;;;;;4976164;28;20195;-60
2022/01/17 02:33:41;;;;;;;10.15;2.00;;;6.30;99.90;;;;;;4976102;28;20210;-60
2022/01/17 02:36:06;;;;;;;11.20;1.75;;;6.30;99.90;;;;;;4975895;28;20559;-61
2022/01/17 02:38:32;;;;;;;13.60;2.13;;;6.30;99.90;;;;;;4975668;28;20167;-61
2022/01/17 02:40:58;;;;;;;7.72;1.90;;;6.30;99.90;;;;;;4975752;28;20171;-60
2022/01/17 02:43:25;;;;;;;11.07;2.10;;;6.20;99.90;;;;;;4975643;28;20611;-59
2022/01/17 02:48:21;;;;;;;16.05;2.50;;;6.30;99.90;;;;;;4975831;28;20194;-59
2022/01/17 02:50:47;;;;;;;13.50;2.20;;;6.30;99.90;;;;;;4975527;28;20257;-58
2022/01/17 02:53:13;;;;;;;6.55;1.83;;;6.30;99.90;;;;;;4975737;28;20590;-59
2022/01/17 02:55:44;;;;;;;8.52;2.00;;;6.30;99.90;;;;;;4975577;28;20229;-60
2022/01/17 02:58:10;;;;;;;9.85;1.95;;;6.30;99.90;;;;;;4975582;28;20179;-59
2022/01/17 03:00:35;;;;;;;9.13;2.40;;;6.20;99.90;;;;;;4975358;28;20230;-60
2022/01/17 03:03:01;;;;;;;9.45;1.85;;;6.30;99.90;;;;;;4975389;28;20214;-61
2022/01/17 03:05:26;;;;;;;11.15;1.73;;;6.30;99.90;;;;;;4975509;28;20226;-60
2022/01/17 03:07:52;;;;;;;8.85;1.65;;;6.30;99.90;;;;;;4975243;28;20524;-60
2022/01/17 03:10:37;;;;;;;10.80;2.22;;;6.30;99.90;;;;;;4975136;28;20219;-59
2022/01/17 03:13:05;;;;;;;10.88;1.63;;;6.30;99.90;;;;;;4975414;28;20176;-59
2022/01/17 03:15:30;;;;;;;15.38;2.60;;;6.30;99.90;;;;;;4975315;28;20686;-60
2022/01/17 03:17:56;;;;;;;11.32;2.35;;;6.40;99.90;;;;;;4975257;28;20262;-60
2022/01/17 03:20:22;;;;;;;6.35;1.17;;;6.40;99.90;;;;;;4974966;28;20164;-60
2022/01/17 03:22:47;;;;;;;6.15;1.33;;;6.40;99.90;;;;;;4973901;28;20175;-60
2022/01/17 03:25:13;;;;;;;6.45;1.50;;;6.50;99.90;;;;;;4974929;28;20159;-60
2022/01/17 03:27:38;;;;;;;9.63;2.38;;;6.50;99.90;;;;;;4975003;28;20316;-60
2022/01/17 03:30:05;;;;;;;12.73;2.05;;;6.40;99.90;;;;;;4975087;28;20214;-60
2022/01/17 03:32:30;;;;;;;8.95;1.83;;;6.50;99.90;;;;;;4974823;28;20227;-60
2022/01/17 03:34:56;;;;;;;11.80;2.42;;;6.50;99.90;;;;;;4974809;28;20168;-59
2022/01/17 03:37:22;;;;;;;8.63;1.95;;;6.50;99.90;;;;;;4975082;28;20186;-61
2022/01/17 03:39:47;;;;;;;9.32;1.95;;;6.50;99.90;;;;;;4974799;28;20171;-60
2022/01/17 03:42:13;;;;;;;8.55;1.50;;;6.50;99.90;;;;;;4974752;28;20546;-60
2022/01/17 03:44:39;;;;;;;12.43;1.98;;;6.50;99.90;;;;;;4975020;28;20202;-60
2022/01/17 03:47:05;;;;;;;8.00;2.55;;;6.50;99.90;;;;;;4975037;28;20603;-61
2022/01/17 03:49:30;;;;;;;8.23;1.40;;;6.50;99.90;;;;;;4974864;28;20182;-60
2022/01/17 03:51:56;;;;;;;6.07;1.63;;;6.50;99.90;;;;;;4974832;28;20574;-60
2022/01/17 03:54:21;;;;;;;10.05;2.25;;;6.50;99.90;;;;;;4974600;28;20515;-60
2022/01/17 03:56:47;;;;;;;9.68;2.10;;;6.50;99.90;;;;;;4973842;28;20176;-60
2022/01/17 03:59:12;;;;;;;9.35;2.25;;;6.50;99.90;;;;;;4974800;28;20167;-60
2022/01/17 04:01:38;;;;;;;9.80;2.05;;;6.50;99.90;;;;;;4974888;28;20190;-60
2022/01/17 04:04:03;;;;;;;11.77;2.00;;;6.50;99.90;;;;;;4974751;28;20179;-59
2022/01/17 04:06:29;;;;;;;10.63;2.30;;;6.50;99.90;;;;;;4974577;28;20191;-60
2022/01/17 04:08:55;;;;;;;9.45;2.00;;;6.50;99.90;;;;;;4975009;28;20206;-60
2022/01/17 04:11:20;;;;;;;11.23;2.25;;;6.60;99.90;;;;;;4974622;28;20285;-60
2022/01/17 04:13:46;;;;;;;10.27;2.15;;;6.60;99.90;;;;;;4974698;28;20172;-60
2022/01/17 04:16:12;;;;;;;6.85;1.60;;;6.60;99.90;;;;;;4975146;28;20206;-60
2022/01/17 04:18:38;;;;;;;8.82;2.28;;;6.70;99.90;;;;;;4975004;28;20184;-60
2022/01/17 04:21:04;;;;;;;9.75;1.52;;;6.70;99.90;;;;;;4975348;28;20245;-60
2022/01/17 04:23:30;;;;;;;7.55;2.05;;;6.70;99.90;;;;;;4975222;28;20630;-60
2022/01/17 04:25:56;;;;;;;6.72;1.60;;;6.70;99.90;;;;;;4975326;28;20254;-60
2022/01/17 04:28:22;;;;;;;9.20;1.70;;;6.70;99.90;;;;;;4975069;28;20171;-60
2022/01/17 04:30:47;;;;;;;8.13;2.28;;;6.70;99.90;;;;;;4975505;28;20585;-59
2022/01/17 04:33:13;;;;;;;9.40;2.28;;;6.60;99.90;;;;;;4978080;28;20163;-60
2022/01/17 04:35:40;;;;;;;12.77;2.00;;;6.50;99.90;;;;;;4979761;28;20207;-60
2022/01/17 04:38:13;;;;;;;13.27;1.90;;;6.40;99.90;;;;;;4978812;28;20175;-60
2022/01/17 04:40:40;;;;;;;6.78;1.55;;;6.30;99.90;;;;;;4978616;28;20237;-58
2022/01/17 04:43:19;;;;;;;6.03;1.20;;;6.30;99.90;;;;;;4978845;28;20579;-58
2022/01/17 04:45:46;;;;;;;9.93;2.17;;;6.20;99.90;;;;;;4978639;28;20187;-59
2022/01/17 04:48:11;;;;;;;15.57;2.35;;;6.20;99.90;;;;;;4977469;28;20171;-58
2022/01/17 04:50:37;;;;;;;4.22;1.17;;;6.20;99.90;;;;;;4977089;28;20702;-58
2022/01/17 04:53:03;;;;;;;7.18;1.70;;;6.20;99.90;;;;;;4978135;28;20562;-59
2022/01/17 04:55:29;;;;;;;11.48;2.17;;;6.20;99.90;;;;;;4978256;28;20164;-60
2022/01/17 04:57:56;;;;;;;7.63;2.15;;;6.20;99.90;;;;;;4977416;28;20160;-59
2022/01/17 05:00:24;;;;;;;9.20;1.48;;;6.30;99.90;;;;;;4977672;28;20163;-59
2022/01/17 05:02:50;;;;;;;8.55;1.63;;;6.30;99.90;;;;;;4977794;28;20206;-60
2022/01/17 05:05:16;;;;;;;4.78;0.95;;;6.30;99.90;;;;;;4977445;28;20591;-60
2022/01/17 05:07:42;;;;;;;8.40;1.88;;;6.30;99.90;;;;;;4977664;28;20196;-60
2022/01/17 05:10:10;;;;;;;6.50;1.35;;;6.30;99.90;;;;;;4977255;28;20206;-60
2022/01/17 05:12:36;;;;;;;8.80;1.52;;;6.30;99.90;;;;;;4977384;28;20175;-59
2022/01/17 05:15:04;;;;;;;8.85;1.77;;;6.30;99.90;;;;;;4977518;28;20176;-60
2022/01/17 05:19:59;;;;;;;7.32;1.52;;;6.30;99.90;;;;;;4977187;28;20528;-60
2022/01/17 05:22:31;;;;;;;7.70;1.83;;;6.30;99.90;;;;;;4977397;28;20220;-59
2022/01/17 05:24:57;;;;;;;5.13;1.25;;;6.20;99.90;;;;;;4977364;28;20222;-60
2022/01/17 05:27:23;;;;;;;2.47;0.80;;;6.20;99.90;;;;;;4977081;28;20171;-59
2022/01/17 05:29:48;;;;;;;7.53;1.35;;;6.10;99.90;;;;;;4977216;28;20182;-60
2022/01/17 05:32:14;;;;;;;4.72;1.20;;;6.00;99.90;;;;;;4976298;28;20195;-59
2022/01/17 05:34:41;;;;;;;6.18;1.42;;;6.00;99.90;;;;;;4976866;28;20642;-59
2022/01/17 05:37:11;;;;;;;5.05;1.20;;;6.00;99.90;;;;;;4977233;28;20185;-59
2022/01/17 05:39:37;;;;;;;4.97;1.30;;;6.00;99.90;;;;;;4976711;28;20490;-60
2022/01/17 05:42:03;;;;;;;7.38;1.48;;;6.00;99.90;;;;;;4976786;28;20164;-60
2022/01/17 05:44:29;;;;;;;7.75;1.63;;;6.00;99.90;;;;;;4975980;28;20187;-60
2022/01/17 05:46:55;;;;;;;6.05;1.38;;;6.10;99.90;;;;;;4976757;28;20170;-60
2022/01/17 05:49:20;;;;;;;9.38;1.63;;;6.10;99.90;;;;;;4976622;28;20258;-60
2022/01/17 05:51:45;;;;;;;2.10;0.82;;;6.10;99.90;;;;;;4976504;28;20196;-59
2022/01/17 05:54:11;;;;;;;6.18;1.20;;;6.10;99.90;;;;;;4976483;28;20492;-59
2022/01/17 05:56:36;;;;;;;4.32;1.08;;;6.20;99.90;;;;;;4976790;28;20167;-59
2022/01/17 05:59:02;;;;;;;7.75;1.38;;;6.20;99.90;;;;;;4976449;28;20172;-59
2022/01/17 06:01:28;;;;;;;5.25;1.33;;;6.20;99.90;;;;;;4976712;28;20187;-59
2022/01/17 06:03:53;;;;;;;3.08;0.90;;;6.30;99.90;;;;;;4976500;28;20168;-60
2022/01/17 06:06:19;;;;;;;3.35;1.20;;;6.30;99.90;;;;;;4976451;28;20192;-58
2022/01/17 06:08:44;;;;;;;1.40;0.73;;;6.30;99.90;;;;;;4976552;28;20167;-59
2022/01/17 06:11:10;;;;;;;3.67;0.90;;;6.30;99.90;;;;;;4976274;28;20202;-59
2022/01/17 06:13:36;;;;;;;5.43;1.08;;;6.30;99.90;;;;;;4976500;28;20159;-59
2022/01/17 06:16:01;;;;;;;4.78;1.00;;;6.30;99.90;;;;;;4976069;28;20178;-60
2022/01/17 06:18:27;;;;;;;6.30;1.25;;;6.30;99.90;;;;;;4976041;28;20183;-59
2022/01/17 06:20:52;;;;;;;4.22;0.93;;;6.30;99.90;;;;;;4975903;28;20230;-60
2022/01/17 06:23:18;;;;;;;4.30;1.02;;;6.30;99.90;;;;;;4976091;28;20785;-59
2022/01/17 06:25:43;;;;;;;4.60;1.08;;;6.30;99.90;;;;;;4976146;28;20172;-59
2022/01/17 06:28:09;;;;;;;5.50;0.88;;;6.30;99.90;;;;;;4975801;28;20176;-59
2022/01/17 06:30:35;;;;;;;4.78;1.30;;;6.40;99.90;;;;;;4975686;28;20282;-59
2022/01/17 06:33:02;;;;;;;2.80;0.47;;;6.40;99.90;;;;;;4976060;28;20203;-59
2022/01/17 06:35:29;;;;;;;5.82;1.40;;;6.40;99.90;;;;;;4976026;28;20275;-60
2022/01/17 06:37:54;;;;;;;5.15;1.05;;;6.50;99.90;;;;;;4975725;28;20591;-58
2022/01/17 06:40:20;;;;;;;6.55;1.00;;;6.50;99.90;;;;;;4975622;28;20183;-59
2022/01/17 06:42:46;;;;;;;6.03;0.93;;;6.50;99.90;;;;;;4975965;28;20183;-60
2022/01/17 06:45:13;;;;;;;4.80;0.90;;;6.50;99.90;;;;;;4975489;28;20690;-59
2022/01/17 06:47:39;;;;;;;3.65;0.93;;;6.50;99.90;;;;;;4975910;28;20171;-58
2022/01/17 06:50:06;;;;;;;2.92;0.75;;;6.50;99.90;;;;;;4975441;28;20662;-59
2022/01/17 06:52:32;;;;;;;4.03;0.85;;;6.50;99.90;;;;;;4975416;28;20187;-59
2022/01/17 06:54:58;;;;;;;5.80;1.27;;;6.60;99.90;;;;;;4974989;28;20489;-59
2022/01/17 06:57:23;;;;;;;5.82;1.10;;;6.60;99.90;;;;;;4975451;28;20171;-60
2022/01/17 06:59:49;;;;;;;7.60;1.35;;;6.70;99.90;;;;;;4975577;28;20510;-59
2022/01/17 07:02:15;;;;;;;4.20;0.90;;;6.70;99.90;;;;;;4975426;28;20171;-61
2022/01/17 07:04:41;;;;;;;4.03;1.23;;;6.80;99.90;;;;;;4975185;28;20574;-59
2022/01/17 07:07:06;;;;;;;4.40;1.10;;;6.70;99.90;;;;;;4975111;28;20194;-60
2022/01/17 07:09:32;;;;;;;5.85;0.95;;;6.60;99.90;;;;;;4975029;28;20171;-60
2022/01/17 07:11:59;;;;;;;6.18;1.15;;;6.60;99.90;;;;;;4975100;28;20661;-60
2022/01/17 07:14:26;;;;;;;6.10;1.75;;;6.50;99.90;;;;;;4975203;28;20183;-60
2022/01/17 07:16:51;;;;;;;8.40;2.13;;;6.50;99.90;;;;;;4974876;28;20163;-60
2022/01/17 07:19:17;;;;;;;4.95;1.30;;;6.50;99.90;;;;;;4975051;28;20163;-60
2022/01/17 07:21:42;;;;;;;5.75;1.52;;;6.50;99.90;;;;;;4974808;28;20179;-59
2022/01/17 07:24:08;;;;;;;8.57;2.00;;;6.50;99.90;;;;;;4974785;28;20172;-59
2022/01/17 07:26:33;;;;;;;6.57;1.70;;;6.50;99.90;;;;;;4975020;28;20504;-60
2022/01/17 07:29:00;;;;;;;11.23;2.58;;;6.40;99.90;;;;;;4974846;28;20603;-59
2022/01/17 07:31:25;;;;;;;14.38;2.50;;;6.30;99.90;;;;;;4975031;28;20219;-58
2022/01/17 07:33:51;;;;;;;9.48;1.90;;;6.30;99.90;;;;;;4974660;28;20171;-59
2022/01/17 07:36:18;;;;;;;8.25;1.80;;;6.20;99.90;;;;;;4974622;28;20658;-60
2022/01/17 07:38:43;;;;;;;13.80;2.38;;;6.10;99.90;;;;;;4975006;28;20183;-65
2022/01/17 07:41:09;;;;;;;10.63;1.90;;;6.10;99.90;;;;;;4974564;28;20179;-60
2022/01/17 07:43:36;;;;;;;7.10;1.33;;;5.80;99.90;;;;;;4974708;28;20178;-58
2022/01/17 07:46:18;;;;;;;8.77;1.20;;;5.50;99.90;;;;;;4974507;28;20622;-60
2022/01/17 07:51:11;;;;;;;9.52;1.35;;;4.90;99.90;;;;;;4974791;28;20346;-60
2022/01/17 07:53:37;;;;;;;5.65;1.30;;;4.60;99.90;;;;;;4974906;28;20179;-59
2022/01/17 07:56:02;;;;;;;2.92;1.00;;;4.50;99.90;;;;;;4973578;28;20164;-59
2022/01/17 07:58:28;;;;;;;4.30;1.25;;;4.50;99.90;;;;;;4974801;28;20202;-59
2022/01/17 08:00:54;;;;;;;9.27;1.10;;;4.40;99.90;;;;;;4974442;28;20628;-59
2022/01/17 08:03:19;;;;;;;6.82;1.17;;;4.40;99.90;;;;;;4974454;28;20186;-59
2022/01/17 08:05:45;;;;;;;6.43;1.10;;;4.40;99.90;;;;;;4974325;28;20611;-60
2022/01/17 08:08:10;;;;;;;6.60;1.30;;;4.40;99.90;;;;;;4977830;28;20183;-59
2022/01/17 08:10:38;;;;;;;8.02;1.73;;;4.50;99.90;;;;;;4978284;28;20206;-59
2022/01/17 08:13:03;;;;;;;5.40;1.27;;;4.50;99.90;;;;;;4978506;28;20168;-58
2022/01/17 08:15:31;;;;;;;6.60;1.23;;;4.50;99.90;;;;;;5447911;23;20250;-60
2022/01/17 08:23:37;;;;;;;5.10;1.20;;;4.80;99.90;;;;;;5596401;22;20575;31
2022/01/17 08:26:03;;;;;;;3.45;0.82;;;4.90;99.90;;;;;;5702653;22;20602;-60
2022/01/17 08:28:29;;;;;;;4.57;1.20;;;4.90;99.90;;;;;;5643773;22;20306;-60
2022/01/17 08:31:47;;;;;;;8.70;1.50;;;5.00;99.90;;;;;;5683160;22;20578;-60
2022/01/17 08:36:39;;;;;;;12.88;1.80;;;5.10;99.90;;;;;;5585434;22;20495;-58
2022/01/17 08:41:30;;;;;;;3.70;1.00;;;5.20;99.90;;;;;;5517906;22;20185;-60
2022/01/17 08:43:56;;;;;;;7.10;1.50;;;5.30;99.90;;;;;;5509090;22;20252;-59
2022/01/17 08:46:22;;;;;;;6.15;1.55;;;5.30;99.90;;;;;;5543418;22;20214;-59
2022/01/17 08:51:07;;;;;;;9.02;1.35;;;5.30;99.90;;;;;;5613439;22;20584;31
2022/01/17 09:05:39;;;;;;;6.55;1.35;;;5.60;99.90;;;;;;5584592;22;996221;31
2022/01/17 09:15:20;;;;;;;8.63;1.92;;;5.60;99.90;;;;;;5534433;22;985548;-60
2022/01/17 09:25:59;;;;;;;11.38;1.60;;;5.80;99.90;;;;;;6176113;22;20534;31
2022/01/17 09:28:25;;;;;;;8.40;1.63;;;5.70;99.90;;;;;;6142589;23;20177;-62
2022/01/17 09:34:40;;;;;;;7.28;1.80;;;5.10;99.90;;;;;;5643558;22;20545;31
2022/01/17 09:37:04;;;;;;;6.63;1.70;;;4.70;99.90;;;;;;5689589;22;20190;31
2022/01/17 09:43:02;;;;;;;10.57;1.83;;;4.40;99.90;;;;;;6235382;22;20900;31
2022/01/17 09:45:28;;;;;;;9.68;1.77;;;4.20;99.90;;;;;;6213824;22;20548;-58
2022/01/17 10:00:50;;;;;;;5.60;1.67;;;3.80;99.90;;;;;;6206053;22;20521;-60
2022/01/17 10:20:43;;;;;;;3.63;1.27;;;3.20;99.90;;;;;;5591052;23;20267;31
2022/01/17 10:28:23;;;;;;;5.38;1.17;;;3.20;99.90;;;;;;6256917;22;20216;31
2022/01/17 10:54:34;;;;;;;5.35;1.17;;;3.60;99.90;;;;;;5390440;22;20717;31
2022/01/17 11:03:36;;;;;;;8.98;1.95;;;4.00;99.90;;;;;;6326645;22;20544;-58
2022/01/17 11:13:49;;;;;;;7.25;2.20;;;4.60;99.90;;;;;;5777639;23;20321;31
2022/01/17 11:21:17;;;;;;;4.15;0.98;;;4.30;99.90;;;;;;6309180;22;20200;-61
2022/01/17 11:23:47;;;;;;;8.05;1.48;;;3.90;99.90;;;;;;6317059;22;20127;-62
2022/01/17 11:26:13;;;;;;;6.50;1.02;;;3.50;99.90;;;;;;6317140;22;20159;-60
2022/01/17 11:28:40;;;;;;;6.75;1.13;;;3.30;99.90;;;;;;6317013;22;20200;-60
2022/01/17 11:31:08;;;;;;;6.95;1.20;;;3.10;99.90;;;;;;6317223;22;20148;-59
2022/01/17 11:33:34;;;;;;;6.82;1.98;;;3.10;99.90;;;;;;6317031;22;20139;-60
2022/01/17 11:36:00;;;;;;;11.80;2.13;;;3.10;99.90;;;;;;6316769;22;20142;-59
2022/01/17 11:38:34;;;;;;;16.10;3.10;;;3.20;99.90;;;;;;6317232;22;20479;-60
2022/01/17 11:41:03;;;;;;;10.85;2.45;;;3.30;99.90;;;;;;6317128;22;20213;-60
2022/01/17 11:43:35;;;;;;;13.88;2.90;;;3.50;99.90;;;;;;6316639;22;20145;-60
2022/01/17 11:46:19;;;;;;;16.17;2.63;;;3.60;99.90;;;;;;6290319;22;20143;-60
2022/01/17 11:48:58;;;;;;;9.95;1.92;;;3.90;99.90;;;;;;6316375;22;20201;-60
2022/01/17 11:51:40;;;;;;;15.00;2.25;;;4.10;99.90;;;;;;6316839;22;20398;-60
2022/01/17 11:54:14;;;;;;;12.00;2.00;;;4.20;99.90;;;;;;6316651;22;20127;-60
2022/01/17 11:56:43;;;;;;;8.25;1.70;;;4.40;99.90;;;;;;6316512;22;20529;-59
2022/01/17 11:59:23;;;;;;;4.65;1.02;;;4.50;99.90;;;;;;6316520;22;20219;-59
2022/01/17 12:02:10;;;;;;;4.55;1.10;;;4.60;99.90;;;;;;6317282;22;20192;-59
2022/01/17 12:04:36;;;;;;;7.90;1.40;;;4.70;99.90;;;;;;6316526;22;20552;-59
2022/01/17 12:07:01;;;;;;;5.53;1.10;;;4.70;99.90;;;;;;6316465;22;20146;-59
2022/01/17 12:09:29;;;;;;;3.38;0.90;;;4.70;99.90;;;;;;6316303;22;20142;-59
2022/01/17 12:12:03;;;;;;;5.88;1.70;;;4.80;99.90;;;;;;6316386;22;20569;-61
2022/01/17 12:14:40;;;;;;;4.82;1.30;;;4.80;99.90;;;;;;6316220;22;20558;-61
2022/01/17 12:17:29;;;;;;;3.67;1.05;;;4.80;99.90;;;;;;6316869;22;20430;-62
2022/01/17 12:20:03;;;;;;;5.45;1.20;;;4.80;99.90;;;;;;6300117;22;20465;-61
2022/01/17 12:22:57;;;;;;;3.53;1.10;;;4.90;99.90;;;;;;6316054;22;20550;-61
2022/01/17 12:25:27;;;;;;;2.03;1.02;;;4.90;99.90;;;;;;6316491;22;20194;-61
2022/01/17 12:28:04;;;;;;;4.25;1.10;;;4.90;99.90;;;;;;6315645;22;20225;-61
2022/01/17 12:30:55;;;;;;;2.40;1.10;;;4.90;99.90;;;;;;6309353;22;20566;-60
2022/01/17 12:33:39;;;;;;;6.43;1.23;;;5.00;99.90;;;;;;6309764;22;20162;-61
2022/01/17 12:36:28;;;;;;;5.93;1.45;;;5.00;99.90;;;;;;6309667;22;20139;-58
2022/01/17 12:39:17;;;;;;;6.15;1.00;;;5.00;99.90;;;;;;6281998;22;20459;-58
2022/01/17 12:41:44;;;;;;;7.78;1.75;;;5.00;99.90;;;;;;6309869;22;20151;-60
2022/01/17 12:44:20;;;;;;;5.80;1.30;;;5.10;99.90;;;;;;6309220;22;20135;-60
2022/01/17 12:46:48;;;;;;;4.47;1.15;;;5.10;99.90;;;;;;6309697;22;20163;-59
2022/01/17 12:49:15;;;;;;;9.13;1.65;;;5.10;99.90;;;;;;6309154;22;20143;-59
2022/01/17 12:51:42;;;;;;;6.13;1.52;;;5.10;99.90;;;;;;6309166;22;20139;-60
2022/01/17 12:54:13;;;;;;;4.28;0.98;;;5.20;99.90;;;;;;6309172;22;20175;-60
2022/01/17 12:56:43;;;;;;;6.20;1.33;;;5.20;99.90;;;;;;6309132;22;20233;-60
2022/01/17 12:59:09;;;;;;;7.20;1.65;;;5.20;99.90;;;;;;6309064;22;20143;-64
2022/01/17 13:01:35;;;;;;;4.35;1.30;;;5.20;99.90;;;;;;6309390;22;20437;-65
2022/01/17 13:04:06;;;;;;;7.07;1.58;;;5.20;99.90;;;;;;6308958;22;20139;-64
2022/01/17 13:06:32;;;;;;;7.13;1.35;;;5.20;99.90;;;;;;6309261;22;20132;-64
2022/01/17 13:08:59;;;;;;;7.63;1.52;;;5.20;99.90;;;;;;6308807;22;20174;-64
2022/01/17 13:11:25;;;;;;;7.75;1.70;;;5.20;99.90;;;;;;6309081;22;20155;-64
2022/01/17 13:13:58;;;;;;;7.53;1.42;;;5.20;99.90;;;;;;6281727;22;20197;-64
2022/01/17 13:16:24;;;;;;;5.75;1.27;;;5.20;99.90;;;;;;6281670;22;20238;-64
2022/01/17 13:18:52;;;;;;;7.45;1.98;;;5.20;99.90;;;;;;6308600;22;20146;-64
2022/01/17 13:21:18;;;;;;;7.78;1.85;;;5.20;99.90;;;;;;6308581;22;20159;-64
2022/01/17 13:26:40;;;;;;;7.30;1.67;;;5.20;99.90;;;;;;6237122;22;20143;-63
2022/01/17 13:29:08;;;;;;;6.38;1.70;;;5.20;99.90;;;;;;6308155;22;20627;-64
2022/01/17 13:31:34;;;;;;;9.82;1.90;;;5.20;99.90;;;;;;6309105;22;20412;-64
2022/01/17 13:34:10;;;;;;;7.00;2.08;;;5.10;99.90;;;;;;6308989;22;20212;-64
2022/01/17 13:36:36;;;;;;;6.78;1.73;;;5.10;99.90;;;;;;6308570;22;20166;-64
2022/01/17 13:39:13;;;;;;;5.60;1.55;;;5.10;99.90;;;;;;6308870;22;20443;-64
2022/01/17 13:41:44;;;;;;;6.82;1.75;;;5.10;99.90;;;;;;6308085;22;20142;-64
2022/01/17 13:44:10;;;;;;;6.80;1.02;;;5.00;99.90;;;;;;6308504;22;20119;-63
2022/01/17 13:46:38;;;;;;;7.85;1.60;;;5.00;99.90;;;;;;6308664;22;20179;-64
2022/01/17 13:49:07;;;;;;;3.78;1.27;;;5.00;99.90;;;;;;6308372;22;20157;-64
2022/01/17 13:51:34;;;;;;;8.45;1.52;;;5.00;99.90;;;;;;6308571;22;20153;-65
2022/01/17 13:53:59;;;;;;;5.43;1.35;;;5.00;99.90;;;;;;6308616;22;20136;-64
2022/01/17 13:56:32;;;;;;;7.65;1.67;;;5.00;99.90;;;;;;6308479;22;20147;-64
2022/01/17 13:58:58;;;;;;;6.60;1.73;;;4.90;99.90;;;;;;6308306;22;20172;-64
2022/01/17 14:01:23;;;;;;;6.72;1.60;;;4.90;99.90;;;;;;6308033;22;20131;-64
2022/01/17 14:03:49;;;;;;;3.55;1.23;;;4.90;99.90;;;;;;6308250;22;20621;-64
2022/01/17 14:06:16;;;;;;;7.53;1.40;;;4.90;99.90;;;;;;6308311;22;20448;-64
2022/01/17 14:08:48;;;;;;;5.60;1.38;;;4.80;99.90;;;;;;6308702;22;20143;-64
2022/01/17 14:11:16;;;;;;;4.15;1.48;;;4.70;99.90;;;;;;6308645;22;20147;-64
2022/01/17 14:13:47;;;;;;;6.07;1.20;;;4.70;99.90;;;;;;6308577;22;20215;-63
2022/01/17 14:16:20;;;;;;;7.15;1.50;;;4.70;99.90;;;;;;6308571;22;20182;-63
2022/01/17 14:18:51;;;;;;;7.80;1.48;;;4.70;99.90;;;;;;6308355;22;20127;-63
2022/01/17 14:21:27;;;;;;;10.10;1.70;;;4.60;99.90;;;;;;6308325;22;20158;-63
2022/01/17 14:24:12;;;;;;;9.32;1.25;;;4.60;99.90;;;;;;6308430;22;20154;-63
2022/01/17 14:26:40;;;;;;;5.90;1.02;;;4.50;99.90;;;;;;6308513;22;20150;-63
2022/01/17 14:29:11;;;;;;;4.63;1.45;;;4.50;99.90;;;;;;6308164;22;20569;-63
2022/01/17 14:31:38;;;;;;;7.43;1.13;;;4.50;99.90;;;;;;6307923;22;20625;-63
2022/01/17 14:34:24;;;;;;;3.45;1.17;;;4.50;99.90;;;;;;6308397;22;20498;-63
2022/01/17 14:37:12;;;;;;;8.43;1.33;;;4.40;99.90;;;;;;6307764;22;20187;-63
2022/01/17 14:39:46;;;;;;;6.82;1.30;;;4.40;99.90;;;;;;6308288;22;20206;-63
2022/01/17 14:42:29;;;;;;;3.72;1.00;;;4.30;99.90;;;;;;6309053;22;20158;-59
2022/01/17 14:44:57;;;;;;;2.70;0.95;;;4.30;99.90;;;;;;6319257;22;20135;-59
2022/01/17 14:47:24;;;;;;;4.03;1.30;;;4.30;99.90;;;;;;6308316;22;20154;-59
2022/01/17 14:49:56;;;;;;;4.43;1.30;;;4.30;99.90;;;;;;6307774;22;20313;-60
2022/01/17 14:52:26;;;;;;;3.53;1.17;;;4.30;99.90;;;;;;6308341;22;20127;-60
2022/01/17 14:55:11;;;;;;;4.50;1.15;;;4.30;99.90;;;;;;6308078;22;20145;-59
2022/01/17 15:00:32;;;;;;;5.45;1.13;;;4.20;99.90;;;;;;6307868;22;20137;-60
2022/01/17 15:03:08;;;;;;;7.45;1.25;;;4.20;99.90;;;;;;6308257;22;20226;-60
2022/01/17 15:05:35;;;;;;;5.35;1.10;;;4.20;99.90;;;;;;6308372;22;20470;-60
2022/01/17 15:08:01;;;;;;;6.93;1.20;;;4.10;99.90;;;;;;6308228;22;20169;-60
2022/01/17 15:10:30;;;;;;;4.18;1.10;;;4.20;99.90;;;;;;6307731;22;20143;-60
2022/01/17 15:12:59;;;;;;;4.68;0.90;;;4.10;99.90;;;;;;6308262;22;20154;-59
2022/01/17 15:15:25;;;;;;;4.38;1.40;;;4.10;99.90;;;;;;6308405;22;20192;-60
2022/01/17 15:17:55;;;;;;;5.13;0.93;;;4.10;99.90;;;;;;6307706;22;20178;-60
2022/01/17 15:20:22;;;;;;;5.95;0.82;;;4.00;99.90;;;;;;6307738;22;20162;-60
2022/01/17 15:22:47;;;;;;;5.03;1.20;;;4.00;99.90;;;;;;6308494;22;20174;-59
2022/01/17 15:25:14;;;;;;;3.25;0.75;;;4.00;99.90;;;;;;6307797;22;20492;-59
2022/01/17 15:27:41;;;;;;;4.43;1.25;;;4.00;99.90;;;;;;6281437;22;20223;-59
2022/01/17 15:30:08;;;;;;;3.67;1.05;;;4.00;99.90;;;;;;6307587;22;20147;-59
2022/01/17 15:32:35;;;;;;;6.43;1.10;;;4.00;99.90;;;;;;6308269;22;20153;-59